createdAt,value
2018-08-20T00:01:13.061Z,20.70
2018-08-20T00:03:44.547Z,20.70
2018-08-20T00:06:12.416Z,20.60
2018-08-20T00:08:40.036Z,20.60
2018-08-20T00:11:07.971Z,20.50
2018-08-20T00:13:35.715Z,20.60
2018-08-20T00:16:03.469Z,20.60
2018-08-20T00:18:31.442Z,20.50
2018-08-20T00:20:59.244Z,20.50
2018-08-20T00:23:27.138Z,20.50
2018-08-20T00:25:57.582Z,20.40
2018-08-20T00:28:25.993Z,20.30
2018-08-20T00:30:54.246Z,20.30
2018-08-20T00:33:22.021Z,20.30
2018-08-20T00:35:49.799Z,20.30
2018-08-20T00:38:17.469Z,20.30
2018-08-20T00:40:45.769Z,20.20
2018-08-20T00:43:13.899Z,20.20
2018-08-20T00:45:41.860Z,20.20
2018-08-20T00:48:10.252Z,20.10
2018-08-20T00:50:37.897Z,20.10
2018-08-20T00:53:05.626Z,20.10
2018-08-20T00:55:33.281Z,20.10
2018-08-20T00:58:00.964Z,20.10
2018-08-20T01:00:28.690Z,20.00
2018-08-20T01:02:56.357Z,20.00
2018-08-20T01:05:24.088Z,20.00
2018-08-20T01:07:51.826Z,20.00
2018-08-20T01:10:19.630Z,19.90
2018-08-20T01:12:47.244Z,19.90
2018-08-20T01:15:14.962Z,19.90
2018-08-20T01:17:42.838Z,19.90
2018-08-20T01:20:10.578Z,19.90
2018-08-20T01:22:38.220Z,19.90
2018-08-20T01:25:06.002Z,19.80
2018-08-20T01:27:33.688Z,19.80
2018-08-20T01:30:01.377Z,19.80
2018-08-20T01:32:29.060Z,19.80
2018-08-20T01:35:12.816Z,19.80
2018-08-20T01:37:40.518Z,19.80
2018-08-20T01:40:08.358Z,19.70
2018-08-20T01:42:36.130Z,19.70
2018-08-20T01:45:04.687Z,19.60
2018-08-20T01:47:32.433Z,19.60
2018-08-20T01:50:00.236Z,19.60
2018-08-20T01:52:27.940Z,19.60
2018-08-20T01:54:55.716Z,19.60
2018-08-20T01:57:23.534Z,19.50
2018-08-20T01:59:51.433Z,19.50
2018-08-20T02:02:19.068Z,19.50
2018-08-20T02:04:46.727Z,19.50
2018-08-20T02:07:14.644Z,19.50
2018-08-20T02:09:42.345Z,19.50
2018-08-20T02:12:10.225Z,19.40
2018-08-20T02:14:37.939Z,19.40
2018-08-20T02:17:05.736Z,19.40
2018-08-20T02:19:33.401Z,19.30
2018-08-20T02:22:01.137Z,19.30
2018-08-20T02:24:28.860Z,19.30
2018-08-20T02:26:56.581Z,19.30
2018-08-20T02:29:24.400Z,19.30
2018-08-20T02:31:52.045Z,19.20
2018-08-20T02:34:19.753Z,19.20
2018-08-20T02:36:47.505Z,19.20
2018-08-20T02:39:15.210Z,19.20
2018-08-20T02:41:43.302Z,19.20
2018-08-20T02:44:12.445Z,19.20
2018-08-20T02:46:45.070Z,19.20
2018-08-20T02:49:13.398Z,19.10
2018-08-20T02:51:41.238Z,19.10
2018-08-20T02:54:09.768Z,19.10
2018-08-20T02:56:37.779Z,19.10
2018-08-20T02:59:05.708Z,19.10
2018-08-20T03:01:33.457Z,19.10
2018-08-20T03:04:01.289Z,19.10
2018-08-20T03:06:29.089Z,19.00
2018-08-20T03:08:56.973Z,19.00
2018-08-20T03:11:24.785Z,19.00
2018-08-20T03:13:52.481Z,19.00
2018-08-20T03:16:20.230Z,19.00
2018-08-20T03:18:47.869Z,19.00
2018-08-20T03:21:15.587Z,19.00
2018-08-20T03:23:43.258Z,19.00
2018-08-20T03:26:10.969Z,18.90
2018-08-20T03:28:38.600Z,19.00
2018-08-20T03:31:06.288Z,19.00
2018-08-20T03:33:34.015Z,18.90
2018-08-20T03:36:01.737Z,18.90
2018-08-20T03:38:29.654Z,18.90
2018-08-20T03:40:57.458Z,18.80
2018-08-20T03:43:25.304Z,18.80
2018-08-20T03:45:53.020Z,18.80
2018-08-20T03:48:20.751Z,18.80
2018-08-20T03:50:48.467Z,18.80
2018-08-20T03:53:16.094Z,18.70
2018-08-20T03:55:44.413Z,18.70
2018-08-20T03:58:12.083Z,18.70
2018-08-20T04:00:39.938Z,18.60
2018-08-20T04:03:07.749Z,18.60
2018-08-20T04:05:35.476Z,18.60
2018-08-20T04:08:03.209Z,18.60
2018-08-20T04:10:30.998Z,18.60
2018-08-20T04:12:58.720Z,18.60
2018-08-20T04:15:26.431Z,18.60
2018-08-20T04:17:54.175Z,18.60
2018-08-20T04:20:21.900Z,18.60
2018-08-20T04:22:49.558Z,18.60
2018-08-20T04:25:17.268Z,18.60
2018-08-20T04:27:44.968Z,18.70
2018-08-20T04:30:12.780Z,18.70
2018-08-20T04:32:40.680Z,18.70
2018-08-20T04:35:08.460Z,18.70
2018-08-20T04:37:36.428Z,18.70
2018-08-20T04:40:04.835Z,18.70
2018-08-20T04:42:32.566Z,18.70
2018-08-20T04:45:00.253Z,18.80
2018-08-20T04:47:28.083Z,18.80
2018-08-20T04:49:55.878Z,18.80
2018-08-20T04:52:23.620Z,18.80
2018-08-20T04:54:51.357Z,18.90
2018-08-20T04:57:19.243Z,18.90
2018-08-20T04:59:47.120Z,19.00
2018-08-20T05:02:15.111Z,19.00
2018-08-20T05:04:42.916Z,19.10
2018-08-20T05:07:10.846Z,19.10
2018-08-20T05:09:38.545Z,19.20
2018-08-20T05:12:06.360Z,19.20
2018-08-20T05:14:34.045Z,19.30
2018-08-20T05:17:01.895Z,19.40
2018-08-20T05:19:29.598Z,20.00
2018-08-20T05:21:57.309Z,21.30
2018-08-20T05:24:25.073Z,22.70
2018-08-20T05:26:52.737Z,24.30
2018-08-20T05:29:20.493Z,25.60
2018-08-20T05:31:48.242Z,26.50
2018-08-20T05:34:16.069Z,27.00
2018-08-20T05:36:43.892Z,26.90
2018-08-20T05:39:11.590Z,26.80
2018-08-20T05:41:39.285Z,27.40
2018-08-20T05:44:07.100Z,28.20
2018-08-20T05:46:35.217Z,29.00
2018-08-20T05:49:03.000Z,29.80
2018-08-20T05:51:30.766Z,30.60
2018-08-20T05:53:58.783Z,31.30
2018-08-20T05:56:26.586Z,31.90
2018-08-20T05:58:54.366Z,32.40
2018-08-20T06:01:22.266Z,32.70
2018-08-20T06:03:50.107Z,32.90
2018-08-20T06:06:17.978Z,32.90
2018-08-20T06:08:45.726Z,33.00
2018-08-20T06:11:13.577Z,33.00
2018-08-20T06:13:41.346Z,32.90
2018-08-20T06:16:09.113Z,32.60
2018-08-20T06:18:36.784Z,32.20
2018-08-20T06:21:04.563Z,31.70
2018-08-20T06:23:32.290Z,31.20
2018-08-20T06:25:59.997Z,30.90
2018-08-20T06:28:27.921Z,30.50
2018-08-20T06:30:55.743Z,30.10
2018-08-20T06:33:23.472Z,29.70
2018-08-20T06:35:51.159Z,29.30
2018-08-20T06:38:18.909Z,28.90
2018-08-20T06:40:47.013Z,28.60
2018-08-20T06:43:15.213Z,28.30
2018-08-20T06:45:43.046Z,28.30
2018-08-20T06:48:11.829Z,28.40
2018-08-20T06:50:39.902Z,28.40
2018-08-20T06:53:07.712Z,28.50
2018-08-20T06:55:35.465Z,28.60
2018-08-20T06:58:03.249Z,28.60
2018-08-20T07:00:31.826Z,28.60
2018-08-20T07:02:59.622Z,28.50
2018-08-20T07:05:27.320Z,28.70
2018-08-20T07:07:55.231Z,28.90
2018-08-20T07:10:23.026Z,29.10
2018-08-20T07:12:50.754Z,29.40
2018-08-20T07:15:18.488Z,29.60
2018-08-20T07:17:46.326Z,29.80
2018-08-20T07:20:15.036Z,30.10
2018-08-20T07:22:43.223Z,30.50
2018-08-20T07:25:11.038Z,31.00
2018-08-20T07:27:38.812Z,31.30
2018-08-20T07:30:08.255Z,31.40
2018-08-20T07:32:35.955Z,31.80
2018-08-20T07:35:04.077Z,32.40
2018-08-20T07:37:31.848Z,32.70
2018-08-20T07:39:59.597Z,32.80
2018-08-20T07:42:27.417Z,33.40
2018-08-20T07:44:55.095Z,33.80
2018-08-20T07:47:22.862Z,33.80
2018-08-20T07:49:50.625Z,33.60
2018-08-20T07:52:18.452Z,33.60
2018-08-20T07:54:46.285Z,33.50
2018-08-20T07:57:13.969Z,33.50
2018-08-20T07:59:41.765Z,33.40
2018-08-20T08:02:09.673Z,33.30
2018-08-20T08:04:40.355Z,33.00
2018-08-20T08:07:08.177Z,32.50
2018-08-20T08:09:35.925Z,32.30
2018-08-20T08:12:03.715Z,32.00
2018-08-20T08:14:31.460Z,31.70
2018-08-20T08:16:59.221Z,31.60
2018-08-20T08:19:27.100Z,31.70
2018-08-20T08:21:54.922Z,31.80
2018-08-20T08:24:22.600Z,31.80
2018-08-20T08:26:50.498Z,31.50
2018-08-20T08:29:18.223Z,31.20
2018-08-20T08:31:46.032Z,30.80
2018-08-20T08:34:13.837Z,30.30
2018-08-20T08:36:41.623Z,29.90
2018-08-20T08:39:10.545Z,29.60
2018-08-20T08:41:38.729Z,29.20
2018-08-20T08:44:07.254Z,29.10
2018-08-20T08:46:34.964Z,28.80
2018-08-20T08:49:02.629Z,28.50
2018-08-20T08:51:30.435Z,28.40
2018-08-20T08:53:58.139Z,28.30
2018-08-20T08:56:25.856Z,28.20
2018-08-20T08:58:53.543Z,28.10
2018-08-20T09:01:21.461Z,28.00
2018-08-20T09:03:49.229Z,27.80
2018-08-20T09:06:17.029Z,27.90
2018-08-20T09:08:44.870Z,27.90
2018-08-20T09:11:12.592Z,27.80
2018-08-20T09:13:40.472Z,27.90
2018-08-20T09:16:08.081Z,28.10
2018-08-20T09:18:35.873Z,28.40
2018-08-20T09:21:03.657Z,28.50
2018-08-20T09:23:31.479Z,28.60
2018-08-20T09:25:59.234Z,28.80
2018-08-20T09:28:27.014Z,28.90
2018-08-20T09:30:54.942Z,29.10
2018-08-20T09:33:22.716Z,29.20
2018-08-20T09:35:50.434Z,29.40
2018-08-20T09:38:18.304Z,29.70
2018-08-20T09:40:46.028Z,30.10
2018-08-20T09:43:13.784Z,30.30
2018-08-20T09:45:41.494Z,30.50
2018-08-20T09:48:09.243Z,30.50
2018-08-20T09:50:36.952Z,30.60
2018-08-20T09:53:04.690Z,30.50
2018-08-20T09:55:32.478Z,30.50
2018-08-20T09:58:00.211Z,30.40
2018-08-20T10:00:33.665Z,30.30
2018-08-20T10:03:01.443Z,30.20
2018-08-20T10:05:29.114Z,30.40
2018-08-20T10:07:56.804Z,30.40
2018-08-20T10:10:25.687Z,30.20
2018-08-20T10:12:53.335Z,30.10
2018-08-20T10:15:21.213Z,30.00
2018-08-20T10:17:48.984Z,29.80
2018-08-20T10:20:16.700Z,29.70
2018-08-20T10:22:44.418Z,29.80
2018-08-20T10:25:12.245Z,29.80
2018-08-20T10:27:39.944Z,29.80
2018-08-20T10:30:09.202Z,29.80
2018-08-20T10:32:37.003Z,29.90
2018-08-20T10:35:05.127Z,29.90
2018-08-20T10:37:33.134Z,30.00
2018-08-20T10:40:01.054Z,30.00
2018-08-20T10:42:28.822Z,30.00
2018-08-20T10:45:02.258Z,30.00
2018-08-20T10:47:30.013Z,29.90
2018-08-20T10:49:57.672Z,29.90
2018-08-20T10:52:25.888Z,30.00
2018-08-20T10:54:53.622Z,30.20
2018-08-20T10:57:21.381Z,30.10
2018-08-20T10:59:49.055Z,30.00
2018-08-20T11:02:16.812Z,30.00
2018-08-20T11:04:44.580Z,30.00
2018-08-20T11:07:12.422Z,30.10
2018-08-20T11:09:40.102Z,30.10
2018-08-20T11:12:08.059Z,30.20
2018-08-20T11:14:35.898Z,30.30
2018-08-20T11:17:03.656Z,30.40
2018-08-20T11:19:31.379Z,30.70
2018-08-20T11:21:59.166Z,30.80
2018-08-20T11:24:26.835Z,30.80
2018-08-20T11:26:54.636Z,30.90
2018-08-20T11:29:22.349Z,31.00
2018-08-20T11:31:50.167Z,31.10
2018-08-20T11:34:17.913Z,31.20
2018-08-20T11:36:45.747Z,31.30
2018-08-20T11:39:13.420Z,31.40
2018-08-20T11:41:41.301Z,31.60
2018-08-20T11:44:09.077Z,31.80
2018-08-20T11:46:36.821Z,31.90
2018-08-20T11:49:04.858Z,32.10
2018-08-20T11:51:32.755Z,32.10
2018-08-20T11:54:00.413Z,32.10
2018-08-20T11:56:28.183Z,32.10
2018-08-20T11:58:56.049Z,32.00
2018-08-20T12:01:23.829Z,31.90
2018-08-20T12:03:53.342Z,31.60
2018-08-20T12:06:21.571Z,31.50
2018-08-20T12:08:49.581Z,31.40
2018-08-20T12:11:17.713Z,31.20
2018-08-20T12:13:45.521Z,31.20
2018-08-20T12:16:13.309Z,31.10
2018-08-20T12:18:40.945Z,30.90
2018-08-20T12:21:09.166Z,30.90
2018-08-20T12:23:36.996Z,30.80
2018-08-20T12:26:04.784Z,30.80
2018-08-20T12:28:32.504Z,30.90
2018-08-20T12:31:00.547Z,31.00
2018-08-20T12:33:28.245Z,31.10
2018-08-20T12:35:55.922Z,31.10
2018-08-20T12:38:23.593Z,31.10
2018-08-20T12:40:51.428Z,31.00
2018-08-20T12:43:19.248Z,30.90
2018-08-20T12:45:46.936Z,30.80
2018-08-20T12:48:14.742Z,31.00
2018-08-20T12:50:42.440Z,31.00
2018-08-20T12:53:10.089Z,31.10
2018-08-20T12:55:37.838Z,31.10
2018-08-20T12:58:05.702Z,31.10
2018-08-20T13:00:33.600Z,31.10
2018-08-20T13:03:01.292Z,31.00
2018-08-20T13:05:29.257Z,31.00
2018-08-20T13:07:56.891Z,31.10
2018-08-20T13:10:24.644Z,31.10
2018-08-20T13:12:52.320Z,31.10
2018-08-20T13:15:20.045Z,31.00
2018-08-20T13:17:47.770Z,30.80
2018-08-20T13:20:15.626Z,30.70
2018-08-20T13:22:43.355Z,30.70
2018-08-20T13:25:11.123Z,30.60
2018-08-20T13:27:39.366Z,30.60
2018-08-20T13:30:08.391Z,30.50
2018-08-20T13:32:36.345Z,30.40
2018-08-20T13:35:04.626Z,30.40
2018-08-20T13:37:32.339Z,30.40
2018-08-20T13:40:00.110Z,30.50
2018-08-20T13:42:27.872Z,30.50
2018-08-20T13:44:55.540Z,30.40
2018-08-20T13:47:23.372Z,30.50
2018-08-20T13:49:54.623Z,30.50
2018-08-20T13:52:22.457Z,30.50
2018-08-20T13:54:50.143Z,30.50
2018-08-20T13:57:17.914Z,30.60
2018-08-20T13:59:45.582Z,30.70
2018-08-20T14:02:13.479Z,30.70
2018-08-20T14:04:41.261Z,30.70
2018-08-20T14:07:09.127Z,30.70
2018-08-20T14:09:36.959Z,30.70
2018-08-20T14:12:04.743Z,30.70
2018-08-20T14:14:32.559Z,30.70
2018-08-20T14:17:00.302Z,30.70
2018-08-20T14:19:28.044Z,30.70
2018-08-20T14:21:55.845Z,30.70
2018-08-20T14:24:23.627Z,30.60
2018-08-20T14:26:52.189Z,30.50
2018-08-20T14:29:19.884Z,30.40
2018-08-20T14:31:47.643Z,30.30
2018-08-20T14:34:15.331Z,30.20
2018-08-20T14:36:43.149Z,30.30
2018-08-20T14:39:10.793Z,30.20
2018-08-20T14:41:38.573Z,30.20
2018-08-20T14:44:06.418Z,30.30
2018-08-20T14:46:34.255Z,30.40
2018-08-20T14:49:01.998Z,30.50
2018-08-20T14:51:29.797Z,30.50
2018-08-20T14:53:57.517Z,30.60
2018-08-20T14:56:25.233Z,30.60
2018-08-20T14:58:52.893Z,30.60
2018-08-20T15:01:20.792Z,30.50
2018-08-20T15:03:48.450Z,30.50
2018-08-20T15:06:16.185Z,30.40
2018-08-20T15:08:43.854Z,30.30
2018-08-20T15:11:11.558Z,30.20
2018-08-20T15:13:39.210Z,30.20
2018-08-20T15:16:07.313Z,30.10
2018-08-20T15:18:34.998Z,30.00
2018-08-20T15:21:02.672Z,29.90
2018-08-20T15:23:30.378Z,29.90
2018-08-20T15:25:58.254Z,29.90
2018-08-20T15:28:26.124Z,30.00
2018-08-20T15:30:53.841Z,30.00
2018-08-20T15:33:21.532Z,30.00
2018-08-20T15:35:49.303Z,29.80
2018-08-20T15:38:16.945Z,29.70
2018-08-20T15:40:44.676Z,29.60
2018-08-20T15:43:12.329Z,29.50
2018-08-20T15:45:40.238Z,29.40
2018-08-20T15:48:07.955Z,29.30
2018-08-20T15:50:40.278Z,29.30
2018-08-20T15:53:08.057Z,29.10
2018-08-20T15:55:35.727Z,29.00
2018-08-20T15:58:03.457Z,29.00
2018-08-20T16:00:31.206Z,29.00
2018-08-20T16:02:58.907Z,28.90
2018-08-20T16:05:26.666Z,28.90
2018-08-20T16:07:54.341Z,28.80
2018-08-20T16:10:22.177Z,28.70
2018-08-20T16:12:49.850Z,28.70
2018-08-20T16:15:17.593Z,28.70
2018-08-20T16:17:45.260Z,28.70
2018-08-20T16:20:12.966Z,28.70
2018-08-20T16:22:40.979Z,28.60
2018-08-20T16:25:08.984Z,28.60
2018-08-20T16:27:36.747Z,28.60
2018-08-20T16:30:08.282Z,28.50
2018-08-20T16:32:36.017Z,28.50
2018-08-20T16:35:04.108Z,28.50
2018-08-20T16:37:32.005Z,28.50
2018-08-20T16:39:59.694Z,28.40
2018-08-20T16:42:27.522Z,28.30
2018-08-20T16:44:55.538Z,28.30
2018-08-20T16:47:23.330Z,28.20
2018-08-20T16:49:50.990Z,28.20
2018-08-20T16:52:18.816Z,28.10
2018-08-20T16:54:46.728Z,28.10
2018-08-20T16:57:14.482Z,28.00
2018-08-20T16:59:42.272Z,27.90
2018-08-20T17:02:14.576Z,27.80
2018-08-20T17:04:42.304Z,27.70
2018-08-20T17:07:10.076Z,27.60
2018-08-20T17:09:37.823Z,27.50
2018-08-20T17:12:05.652Z,27.40
2018-08-20T17:14:33.350Z,27.30
2018-08-20T17:17:01.141Z,27.20
2018-08-20T17:19:29.164Z,27.10
2018-08-20T17:21:57.048Z,27.00
2018-08-20T17:24:30.726Z,27.00
2018-08-20T17:27:00.642Z,26.90
2018-08-20T17:29:28.409Z,26.90
2018-08-20T17:31:56.346Z,26.80
2018-08-20T17:34:24.189Z,26.80
2018-08-20T17:36:52.320Z,26.90
2018-08-20T17:39:20.335Z,26.80
2018-08-20T17:41:48.094Z,26.70
2018-08-20T17:44:16.919Z,26.60
2018-08-20T17:46:44.665Z,26.60
2018-08-20T17:49:13.147Z,26.60
2018-08-20T17:51:42.668Z,26.50
2018-08-20T17:54:10.547Z,26.40
2018-08-20T17:56:38.368Z,26.30
2018-08-20T17:59:11.088Z,26.30
2018-08-20T18:01:38.898Z,26.20
2018-08-20T18:04:07.090Z,26.10
2018-08-20T18:06:45.267Z,26.00
2018-08-20T18:09:13.427Z,25.90
2018-08-20T18:11:46.690Z,25.90
2018-08-20T18:14:14.442Z,25.80
2018-08-20T18:16:42.130Z,25.70
2018-08-20T18:19:09.854Z,25.60
2018-08-20T18:21:37.645Z,25.50
2018-08-20T18:24:05.468Z,25.40
2018-08-20T18:26:42.221Z,25.40
2018-08-20T18:29:10.251Z,25.30
2018-08-20T18:31:37.989Z,25.20
2018-08-20T18:34:05.925Z,25.20
2018-08-20T18:36:33.702Z,25.10
2018-08-20T18:39:04.002Z,25.00
2018-08-20T18:41:52.177Z,25.00
2018-08-20T18:44:21.526Z,24.90
2018-08-20T18:46:49.858Z,24.80
2018-08-20T18:49:18.046Z,24.70
2018-08-20T18:51:47.225Z,24.70
2018-08-20T18:54:14.973Z,24.60
2018-08-20T18:56:44.258Z,24.60
2018-08-20T18:59:11.979Z,24.50
2018-08-20T19:01:39.675Z,24.40
2018-08-20T19:04:07.548Z,24.40
2018-08-20T19:06:35.394Z,24.30
2018-08-20T19:09:04.205Z,24.20
2018-08-20T19:11:32.175Z,24.20
2018-08-20T19:14:04.547Z,24.20
2018-08-20T19:16:37.362Z,24.10
2018-08-20T19:19:06.491Z,24.20
2018-08-20T19:21:39.226Z,24.10
2018-08-20T19:24:08.046Z,24.10
2018-08-20T19:26:36.194Z,24.10
2018-08-20T19:29:16.061Z,24.10
2018-08-20T19:31:44.642Z,24.10
2018-08-20T19:34:12.656Z,24.10
2018-08-20T19:36:41.796Z,24.10
2018-08-20T19:39:09.561Z,24.20
2018-08-20T19:41:37.994Z,24.20
2018-08-20T19:44:06.891Z,24.20
2018-08-20T19:46:36.641Z,24.20
2018-08-20T19:49:06.760Z,24.20
2018-08-20T19:51:37.153Z,24.20
2018-08-20T19:54:05.728Z,24.30
2018-08-20T19:56:33.534Z,24.30
2018-08-20T19:59:01.354Z,24.30
2018-08-20T20:01:29.087Z,24.40
2018-08-20T20:03:57.023Z,24.40
2018-08-20T20:06:24.873Z,24.40
2018-08-20T20:08:52.606Z,24.40
2018-08-20T20:11:26.037Z,24.40
2018-08-20T20:13:56.251Z,24.40
2018-08-20T20:16:24.414Z,24.30
2018-08-20T20:18:53.494Z,24.30
2018-08-20T20:21:21.886Z,24.30
2018-08-20T20:23:49.664Z,24.30
2018-08-20T20:26:17.850Z,24.20
2018-08-20T20:28:45.582Z,24.20
2018-08-20T20:31:14.141Z,24.20
2018-08-20T20:33:42.035Z,24.20
2018-08-20T20:36:15.713Z,24.20
2018-08-20T20:38:44.119Z,24.20
2018-08-20T20:41:11.862Z,24.20
2018-08-20T20:43:39.671Z,24.20
2018-08-20T20:46:09.300Z,24.20
2018-08-20T20:48:37.500Z,24.10
2018-08-20T20:51:05.521Z,24.10
2018-08-20T20:53:33.399Z,24.10
2018-08-20T20:56:01.416Z,24.10
2018-08-20T20:58:33.029Z,24.10
2018-08-20T21:01:02.368Z,24.10
2018-08-20T21:03:30.566Z,24.10
2018-08-20T21:05:58.348Z,24.00
2018-08-20T21:09:04.249Z,24.00
2018-08-20T21:14:15.792Z,24.00
2018-08-20T21:16:43.497Z,23.90
2018-08-20T21:19:11.173Z,23.90
2018-08-20T21:21:38.929Z,23.90
2018-08-20T21:24:07.394Z,23.90
2018-08-20T21:26:35.099Z,23.80
2018-08-20T21:29:02.854Z,23.70
2018-08-20T21:31:36.617Z,23.70
2018-08-20T21:34:04.482Z,23.80
2018-08-20T21:36:32.229Z,23.70
2018-08-20T21:38:59.971Z,23.70
2018-08-20T21:41:28.704Z,23.60
2018-08-20T21:43:56.537Z,23.60
2018-08-20T21:46:24.349Z,23.50
2018-08-20T21:48:52.293Z,23.60
2018-08-20T21:51:23.786Z,23.50
2018-08-20T21:53:51.546Z,23.50
2018-08-20T21:56:19.428Z,23.50
2018-08-20T21:58:47.380Z,23.50
2018-08-20T22:01:16.222Z,23.50
2018-08-20T22:03:44.418Z,23.40
2018-08-20T22:06:12.765Z,23.40
2018-08-20T22:08:40.776Z,23.40
2018-08-20T22:11:09.222Z,23.30
2018-08-20T22:13:36.935Z,23.30
2018-08-20T22:16:17.783Z,23.40
2018-08-20T22:18:47.355Z,23.30
2018-08-20T22:21:16.386Z,23.30
2018-08-20T22:23:45.085Z,23.40
2018-08-20T22:26:16.449Z,23.40
2018-08-20T22:28:44.443Z,23.30
2018-08-20T22:31:12.237Z,23.30
2018-08-20T22:33:40.282Z,23.30
2018-08-20T22:36:10.791Z,23.30
2018-08-20T22:38:49.028Z,23.30
2018-08-20T22:41:18.120Z,23.30
2018-08-20T22:43:45.928Z,23.30
2018-08-20T22:46:13.696Z,23.20
2018-08-20T22:48:41.337Z,23.30
2018-08-20T22:51:12.721Z,23.20
2018-08-20T22:53:45.194Z,23.20
2018-08-20T22:56:18.359Z,23.20
2018-08-20T22:58:46.148Z,23.20
2018-08-20T23:01:13.978Z,23.30
2018-08-20T23:03:41.924Z,23.30
2018-08-20T23:06:09.694Z,23.20
2018-08-20T23:08:37.591Z,23.20
2018-08-20T23:11:05.347Z,23.20
2018-08-20T23:13:33.109Z,23.20
2018-08-20T23:16:01.403Z,23.10
2018-08-20T23:18:29.157Z,23.20
2018-08-20T23:20:57.073Z,23.10
2018-08-20T23:23:30.438Z,23.10
2018-08-20T23:26:05.743Z,23.10
2018-08-20T23:28:35.369Z,23.10
2018-08-20T23:31:03.159Z,23.10
2018-08-20T23:33:31.845Z,23.10
2018-08-20T23:35:59.990Z,23.10
2018-08-20T23:38:28.376Z,23.10
2018-08-20T23:40:56.478Z,23.10
2018-08-20T23:43:24.197Z,23.10
2018-08-20T23:45:51.902Z,23.10
2018-08-20T23:48:19.620Z,23.00
2018-08-20T23:50:53.244Z,23.00
2018-08-20T23:53:21.437Z,23.10
2018-08-20T23:55:49.396Z,23.10
2018-08-20T23:58:17.545Z,23.10
